sensor_id;sensor_type;location;lat;lon;timestamp;temperature;humidity
16814;DHT22;8524;57.650;11.926;2023-07-31T00:01:56;14.80;99.90
16814;DHT22;8524;57.650;11.926;2023-07-31T00:04:23;14.80;99.90
16814;DHT22;8524;57.650;11.926;2023-07-31T00:06:52;14.70;99.90
16814;DHT22;8524;57.650;11.926;2023-07-31T00:09:19;14.70;99.90
16814;DHT22;8524;57.650;11.926;2023-07-31T00:11:46;14.60;99.90
16814;DHT22;8524;57.650;11.926;2023-07-31T00:14:13;14.50;99.90
16814;DHT22;8524;57.650;11.926;2023-07-31T00:16:40;14.50;99.90
16814;DHT22;8524;57.650;11.926;2023-07-31T00:19:07;14.50;99.90
16814;DHT22;8524;57.650;11.926;2023-07-31T00:21:34;14.60;99.90
16814;DHT22;8524;57.650;11.926;2023-07-31T00:24:03;14.60;99.90
16814;DHT22;8524;57.650;11.926;2023-07-31T00:26:30;14.60;99.90
16814;DHT22;8524;57.650;11.926;2023-07-31T00:28:57;14.60;99.90
16814;DHT22;8524;57.650;11.926;2023-07-31T00:31:24;14.60;99.90
16814;DHT22;8524;57.650;11.926;2023-07-31T00:33:51;14.60;99.90
16814;DHT22;8524;57.650;11.926;2023-07-31T00:36:18;14.50;99.90
16814;DHT22;8524;57.650;11.926;2023-07-31T00:38:45;14.50;99.90
16814;DHT22;8524;57.650;11.926;2023-07-31T00:41:13;14.50;99.90
16814;DHT22;8524;57.650;11.926;2023-07-31T00:43:40;14.50;99.90
16814;DHT22;8524;57.650;11.926;2023-07-31T00:46:07;14.40;99.90
16814;DHT22;8524;57.650;11.926;2023-07-31T00:48:35;14.40;99.90
16814;DHT22;8524;57.650;11.926;2023-07-31T00:51:02;14.40;99.90
16814;DHT22;8524;57.650;11.926;2023-07-31T00:53:30;14.40;99.90
16814;DHT22;8524;57.650;11.926;2023-07-31T00:55:57;14.30;99.90
16814;DHT22;8524;57.650;11.926;2023-07-31T00:58:26;14.30;99.90
16814;DHT22;8524;57.650;11.926;2023-07-31T01:00:53;14.20;99.90
16814;DHT22;8524;57.650;11.926;2023-07-31T01:03:20;14.20;99.90
16814;DHT22;8524;57.650;11.926;2023-07-31T01:05:58;14.10;99.90
16814;DHT22;8524;57.650;11.926;2023-07-31T01:08:32;14.10;99.90
16814;DHT22;8524;57.650;11.926;2023-07-31T01:11:07;14.10;99.90
16814;DHT22;8524;57.650;11.926;2023-07-31T01:13:38;14.00;99.90
16814;DHT22;8524;57.650;11.926;2023-07-31T01:16:05;13.90;99.90
16814;DHT22;8524;57.650;11.926;2023-07-31T01:18:32;13.80;99.90
16814;DHT22;8524;57.650;11.926;2023-07-31T01:21:06;13.70;99.90
16814;DHT22;8524;57.650;11.926;2023-07-31T01:23:56;13.70;99.90
16814;DHT22;8524;57.650;11.926;2023-07-31T01:26:34;13.70;99.90
16814;DHT22;8524;57.650;11.926;2023-07-31T01:29:07;13.70;99.90
16814;DHT22;8524;57.650;11.926;2023-07-31T01:31:36;13.80;99.90
16814;DHT22;8524;57.650;11.926;2023-07-31T01:34:04;13.80;99.90
16814;DHT22;8524;57.650;11.926;2023-07-31T01:36:32;13.80;99.90
16814;DHT22;8524;57.650;11.926;2023-07-31T01:38:59;13.80;99.90
16814;DHT22;8524;57.650;11.926;2023-07-31T01:41:27;13.80;99.90
16814;DHT22;8524;57.650;11.926;2023-07-31T01:43:55;13.80;99.90
16814;DHT22;8524;57.650;11.926;2023-07-31T01:46:22;13.80;99.90
16814;DHT22;8524;57.650;11.926;2023-07-31T01:48:49;13.80;99.90
16814;DHT22;8524;57.650;11.926;2023-07-31T01:51:16;13.80;99.90
16814;DHT22;8524;57.650;11.926;2023-07-31T01:53:43;13.90;99.90
16814;DHT22;8524;57.650;11.926;2023-07-31T01:56:10;13.90;99.90
16814;DHT22;8524;57.650;11.926;2023-07-31T01:58:37;14.00;99.90
16814;DHT22;8524;57.650;11.926;2023-07-31T02:01:06;14.10;99.90
16814;DHT22;8524;57.650;11.926;2023-07-31T02:03:33;14.10;99.90
16814;DHT22;8524;57.650;11.926;2023-07-31T02:06:00;14.10;99.90
16814;DHT22;8524;57.650;11.926;2023-07-31T02:08:27;14.10;99.90
16814;DHT22;8524;57.650;11.926;2023-07-31T02:10:54;14.10;99.90
16814;DHT22;8524;57.650;11.926;2023-07-31T02:13:21;14.00;99.90
16814;DHT22;8524;57.650;11.926;2023-07-31T02:15:48;14.00;99.90
16814;DHT22;8524;57.650;11.926;2023-07-31T02:18:17;13.90;99.90
16814;DHT22;8524;57.650;11.926;2023-07-31T02:20:49;13.90;99.90
16814;DHT22;8524;57.650;11.926;2023-07-31T02:23:16;13.90;99.90
16814;DHT22;8524;57.650;11.926;2023-07-31T02:25:43;13.90;99.90
16814;DHT22;8524;57.650;11.926;2023-07-31T02:28:10;13.90;99.90
16814;DHT22;8524;57.650;11.926;2023-07-31T02:30:38;14.00;99.90
16814;DHT22;8524;57.650;11.926;2023-07-31T02:33:05;14.00;99.90
16814;DHT22;8524;57.650;11.926;2023-07-31T02:35:34;14.00;99.90
16814;DHT22;8524;57.650;11.926;2023-07-31T02:38:01;14.00;99.90
16814;DHT22;8524;57.650;11.926;2023-07-31T02:40:28;14.10;99.90
16814;DHT22;8524;57.650;11.926;2023-07-31T02:42:55;14.00;99.90
16814;DHT22;8524;57.650;11.926;2023-07-31T02:45:22;14.10;99.90
16814;DHT22;8524;57.650;11.926;2023-07-31T02:47:49;14.20;99.90
16814;DHT22;8524;57.650;11.926;2023-07-31T02:50:16;14.20;99.90
16814;DHT22;8524;57.650;11.926;2023-07-31T02:52:44;14.10;99.90
16814;DHT22;8524;57.650;11.926;2023-07-31T02:55:11;14.10;99.90
16814;DHT22;8524;57.650;11.926;2023-07-31T02:57:38;14.10;99.90
16814;DHT22;8524;57.650;11.926;2023-07-31T03:00:06;14.10;99.90
16814;DHT22;8524;57.650;11.926;2023-07-31T03:02:35;14.10;99.90
16814;DHT22;8524;57.650;11.926;2023-07-31T03:05:02;14.10;99.90
16814;DHT22;8524;57.650;11.926;2023-07-31T03:07:29;14.00;99.90
16814;DHT22;8524;57.650;11.926;2023-07-31T03:09:58;14.00;99.90
16814;DHT22;8524;57.650;11.926;2023-07-31T03:12:26;14.00;99.90
16814;DHT22;8524;57.650;11.926;2023-07-31T03:14:53;14.10;99.90
16814;DHT22;8524;57.650;11.926;2023-07-31T03:17:20;14.00;99.90
16814;DHT22;8524;57.650;11.926;2023-07-31T03:19:47;14.00;99.90
16814;DHT22;8524;57.650;11.926;2023-07-31T03:22:14;14.00;99.90
16814;DHT22;8524;57.650;11.926;2023-07-31T03:24:41;14.00;99.90
16814;DHT22;8524;57.650;11.926;2023-07-31T03:27:10;14.00;99.90
16814;DHT22;8524;57.650;11.926;2023-07-31T03:29:37;14.00;99.90
16814;DHT22;8524;57.650;11.926;2023-07-31T03:32:04;14.00;99.90
16814;DHT22;8524;57.650;11.926;2023-07-31T03:34:31;14.00;99.90
16814;DHT22;8524;57.650;11.926;2023-07-31T03:36:59;14.00;99.90
16814;DHT22;8524;57.650;11.926;2023-07-31T03:39:26;14.10;99.90
16814;DHT22;8524;57.650;11.926;2023-07-31T03:41:53;14.10;99.90
16814;DHT22;8524;57.650;11.926;2023-07-31T03:44:22;14.10;99.90
16814;DHT22;8524;57.650;11.926;2023-07-31T03:46:49;14.10;99.90
16814;DHT22;8524;57.650;11.926;2023-07-31T03:49:16;14.10;99.90
16814;DHT22;8524;57.650;11.926;2023-07-31T03:51:43;14.20;99.90
16814;DHT22;8524;57.650;11.926;2023-07-31T03:54:10;14.20;99.90
16814;DHT22;8524;57.650;11.926;2023-07-31T03:56:38;14.30;99.90
16814;DHT22;8524;57.650;11.926;2023-07-31T03:59:05;14.30;99.90
16814;DHT22;8524;57.650;11.926;2023-07-31T04:01:34;14.30;99.90
16814;DHT22;8524;57.650;11.926;2023-07-31T04:04:01;14.30;99.90
16814;DHT22;8524;57.650;11.926;2023-07-31T04:06:28;14.30;99.90
16814;DHT22;8524;57.650;11.926;2023-07-31T04:08:55;14.30;99.90
16814;DHT22;8524;57.650;11.926;2023-07-31T04:11:22;14.30;99.90
16814;DHT22;8524;57.650;11.926;2023-07-31T04:13:49;14.30;99.90
16814;DHT22;8524;57.650;11.926;2023-07-31T04:16:16;14.30;99.90
16814;DHT22;8524;57.650;11.926;2023-07-31T04:18:44;14.30;99.90
16814;DHT22;8524;57.650;11.926;2023-07-31T04:21:11;14.30;99.90
16814;DHT22;8524;57.650;11.926;2023-07-31T04:23:38;14.40;99.90
16814;DHT22;8524;57.650;11.926;2023-07-31T04:26:05;14.40;99.90
16814;DHT22;8524;57.650;11.926;2023-07-31T04:28:32;14.40;99.90
16814;DHT22;8524;57.650;11.926;2023-07-31T04:30:59;14.40;99.90
16814;DHT22;8524;57.650;11.926;2023-07-31T04:33:26;14.50;99.90
16814;DHT22;8524;57.650;11.926;2023-07-31T04:35:55;14.50;99.90
16814;DHT22;8524;57.650;11.926;2023-07-31T04:38:22;14.60;99.90
16814;DHT22;8524;57.650;11.926;2023-07-31T04:40:49;14.60;99.90
16814;DHT22;8524;57.650;11.926;2023-07-31T04:43:16;14.70;99.90
16814;DHT22;8524;57.650;11.926;2023-07-31T04:45:45;14.70;99.90
16814;DHT22;8524;57.650;11.926;2023-07-31T04:48:13;14.80;99.90
16814;DHT22;8524;57.650;11.926;2023-07-31T04:50:40;14.80;99.90
16814;DHT22;8524;57.650;11.926;2023-07-31T04:53:09;14.80;99.90
16814;DHT22;8524;57.650;11.926;2023-07-31T04:55:36;14.90;99.90
16814;DHT22;8524;57.650;11.926;2023-07-31T04:58:03;14.90;99.90
16814;DHT22;8524;57.650;11.926;2023-07-31T05:00:30;14.90;99.90
16814;DHT22;8524;57.650;11.926;2023-07-31T05:02:57;14.80;99.90
16814;DHT22;8524;57.650;11.926;2023-07-31T05:05:24;14.80;99.90
16814;DHT22;8524;57.650;11.926;2023-07-31T05:07:51;14.80;99.90
16814;DHT22;8524;57.650;11.926;2023-07-31T05:10:19;14.80;99.90
16814;DHT22;8524;57.650;11.926;2023-07-31T05:12:46;14.80;99.90
16814;DHT22;8524;57.650;11.926;2023-07-31T05:15:13;14.90;99.90
16814;DHT22;8524;57.650;11.926;2023-07-31T05:17:40;15.00;99.90
16814;DHT22;8524;57.650;11.926;2023-07-31T05:20:08;15.20;99.90
16814;DHT22;8524;57.650;11.926;2023-07-31T05:22:35;15.40;99.90
16814;DHT22;8524;57.650;11.926;2023-07-31T05:25:02;15.60;99.90
16814;DHT22;8524;57.650;11.926;2023-07-31T05:27:31;15.80;99.90
16814;DHT22;8524;57.650;11.926;2023-07-31T05:29:59;16.00;99.90
16814;DHT22;8524;57.650;11.926;2023-07-31T05:32:26;16.20;99.90
16814;DHT22;8524;57.650;11.926;2023-07-31T05:34:53;16.20;99.90
16814;DHT22;8524;57.650;11.926;2023-07-31T05:37:20;16.20;99.90
16814;DHT22;8524;57.650;11.926;2023-07-31T05:39:47;16.30;99.90
16814;DHT22;8524;57.650;11.926;2023-07-31T05:42:14;16.40;99.90
16814;DHT22;8524;57.650;11.926;2023-07-31T05:44:43;16.50;99.90
16814;DHT22;8524;57.650;11.926;2023-07-31T05:47:10;16.70;99.90
16814;DHT22;8524;57.650;11.926;2023-07-31T05:49:37;17.00;99.90
16814;DHT22;8524;57.650;11.926;2023-07-31T05:52:05;17.30;99.90
16814;DHT22;8524;57.650;11.926;2023-07-31T05:54:32;17.50;99.90
16814;DHT22;8524;57.650;11.926;2023-07-31T05:56:59;17.60;99.90
16814;DHT22;8524;57.650;11.926;2023-07-31T05:59:26;17.80;99.90
16814;DHT22;8524;57.650;11.926;2023-07-31T06:01:55;18.00;99.90
16814;DHT22;8524;57.650;11.926;2023-07-31T06:04:22;18.00;99.90
16814;DHT22;8524;57.650;11.926;2023-07-31T06:06:51;17.80;99.90
16814;DHT22;8524;57.650;11.926;2023-07-31T06:09:18;17.70;99.90
16814;DHT22;8524;57.650;11.926;2023-07-31T06:11:45;17.50;99.90
16814;DHT22;8524;57.650;11.926;2023-07-31T06:14:13;17.50;99.90
16814;DHT22;8524;57.650;11.926;2023-07-31T06:16:40;17.30;99.90
16814;DHT22;8524;57.650;11.926;2023-07-31T06:19:08;17.30;99.90
16814;DHT22;8524;57.650;11.926;2023-07-31T06:21:35;17.20;99.90
16814;DHT22;8524;57.650;11.926;2023-07-31T06:24:04;17.20;99.90
16814;DHT22;8524;57.650;11.926;2023-07-31T06:26:31;17.10;99.90
16814;DHT22;8524;57.650;11.926;2023-07-31T06:28:58;17.10;99.90
16814;DHT22;8524;57.650;11.926;2023-07-31T06:31:25;16.90;99.90
16814;DHT22;8524;57.650;11.926;2023-07-31T06:33:52;16.80;99.90
16814;DHT22;8524;57.650;11.926;2023-07-31T06:36:21;16.70;99.90
16814;DHT22;8524;57.650;11.926;2023-07-31T06:38:48;16.60;99.90
16814;DHT22;8524;57.650;11.926;2023-07-31T06:41:15;16.50;99.90
16814;DHT22;8524;57.650;11.926;2023-07-31T06:43:42;16.40;99.90
16814;DHT22;8524;57.650;11.926;2023-07-31T06:46:09;16.30;99.90
16814;DHT22;8524;57.650;11.926;2023-07-31T06:48:36;16.30;99.90
16814;DHT22;8524;57.650;11.926;2023-07-31T06:51:03;16.20;99.90
16814;DHT22;8524;57.650;11.926;2023-07-31T06:53:32;16.20;99.90
16814;DHT22;8524;57.650;11.926;2023-07-31T06:55:59;16.10;99.90
16814;DHT22;8524;57.650;11.926;2023-07-31T06:58:26;16.00;99.90
16814;DHT22;8524;57.650;11.926;2023-07-31T07:00:53;16.00;99.90
16814;DHT22;8524;57.650;11.926;2023-07-31T07:03:20;15.90;99.90
16814;DHT22;8524;57.650;11.926;2023-07-31T07:05:47;15.90;99.90
16814;DHT22;8524;57.650;11.926;2023-07-31T07:08:14;15.90;99.90
16814;DHT22;8524;57.650;11.926;2023-07-31T07:10:43;15.90;99.90
16814;DHT22;8524;57.650;11.926;2023-07-31T07:13:11;15.80;99.90
16814;DHT22;8524;57.650;11.926;2023-07-31T07:15:39;15.80;99.90
16814;DHT22;8524;57.650;11.926;2023-07-31T07:18:06;15.70;99.90
16814;DHT22;8524;57.650;11.926;2023-07-31T07:20:33;15.70;99.90
16814;DHT22;8524;57.650;11.926;2023-07-31T07:23:00;15.70;99.90
16814;DHT22;8524;57.650;11.926;2023-07-31T07:25:27;15.70;99.90
16814;DHT22;8524;57.650;11.926;2023-07-31T07:27:55;15.60;99.90
16814;DHT22;8524;57.650;11.926;2023-07-31T07:30:22;15.60;99.90
16814;DHT22;8524;57.650;11.926;2023-07-31T07:32:50;15.50;99.90
16814;DHT22;8524;57.650;11.926;2023-07-31T07:35:17;15.70;99.90
16814;DHT22;8524;57.650;11.926;2023-07-31T07:37:44;15.60;99.90
16814;DHT22;8524;57.650;11.926;2023-07-31T07:40:11;15.50;99.90
16814;DHT22;8524;57.650;11.926;2023-07-31T07:42:38;15.60;99.90
16814;DHT22;8524;57.650;11.926;2023-07-31T07:45:08;15.70;99.90
16814;DHT22;8524;57.650;11.926;2023-07-31T07:47:35;15.70;99.90
16814;DHT22;8524;57.650;11.926;2023-07-31T07:50:02;15.80;99.90
16814;DHT22;8524;57.650;11.926;2023-07-31T07:52:29;16.00;99.90
16814;DHT22;8524;57.650;11.926;2023-07-31T07:54:56;16.10;99.90
16814;DHT22;8524;57.650;11.926;2023-07-31T07:57:23;16.10;99.90
16814;DHT22;8524;57.650;11.926;2023-07-31T07:59:50;16.20;99.90
16814;DHT22;8524;57.650;11.926;2023-07-31T08:02:19;16.20;99.90
16814;DHT22;8524;57.650;11.926;2023-07-31T08:04:46;16.40;99.90
16814;DHT22;8524;57.650;11.926;2023-07-31T08:07:13;16.50;99.90
16814;DHT22;8524;57.650;11.926;2023-07-31T08:09:40;16.40;99.90
16814;DHT22;8524;57.650;11.926;2023-07-31T08:12:08;16.30;99.90
16814;DHT22;8524;57.650;11.926;2023-07-31T08:14:35;16.20;99.90
16814;DHT22;8524;57.650;11.926;2023-07-31T08:17:02;16.10;99.90
16814;DHT22;8524;57.650;11.926;2023-07-31T08:19:31;16.20;99.90
16814;DHT22;8524;57.650;11.926;2023-07-31T08:21:58;16.30;99.90
16814;DHT22;8524;57.650;11.926;2023-07-31T08:24:25;16.30;99.90
16814;DHT22;8524;57.650;11.926;2023-07-31T08:26:52;16.30;99.90
16814;DHT22;8524;57.650;11.926;2023-07-31T08:29:19;16.40;99.90
16814;DHT22;8524;57.650;11.926;2023-07-31T08:31:46;16.30;99.90
16814;DHT22;8524;57.650;11.926;2023-07-31T08:34:13;16.30;99.90
16814;DHT22;8524;57.650;11.926;2023-07-31T08:36:42;16.30;99.90
16814;DHT22;8524;57.650;11.926;2023-07-31T08:39:09;16.30;99.90
16814;DHT22;8524;57.650;11.926;2023-07-31T08:41:37;16.40;99.90
16814;DHT22;8524;57.650;11.926;2023-07-31T08:44:07;16.50;99.90
16814;DHT22;8524;57.650;11.926;2023-07-31T08:46:34;16.60;99.90
16814;DHT22;8524;57.650;11.926;2023-07-31T08:49:04;16.60;99.90
16814;DHT22;8524;57.650;11.926;2023-07-31T08:51:33;16.60;99.90
16814;DHT22;8524;57.650;11.926;2023-07-31T08:54:02;16.40;99.90
16814;DHT22;8524;57.650;11.926;2023-07-31T08:56:31;16.50;99.90
16814;DHT22;8524;57.650;11.926;2023-07-31T08:58:59;16.50;99.90
16814;DHT22;8524;57.650;11.926;2023-07-31T09:01:30;16.50;99.90
16814;DHT22;8524;57.650;11.926;2023-07-31T09:03:59;16.40;99.90
16814;DHT22;8524;57.650;11.926;2023-07-31T09:06:28;16.30;99.90
16814;DHT22;8524;57.650;11.926;2023-07-31T09:08:56;16.40;99.90
16814;DHT22;8524;57.650;11.926;2023-07-31T09:11:25;16.50;99.90
16814;DHT22;8524;57.650;11.926;2023-07-31T09:13:57;16.50;99.90
16814;DHT22;8524;57.650;11.926;2023-07-31T09:16:29;16.50;99.90
16814;DHT22;8524;57.650;11.926;2023-07-31T09:18:57;16.60;99.90
16814;DHT22;8524;57.650;11.926;2023-07-31T09:21:27;16.60;99.90
16814;DHT22;8524;57.650;11.926;2023-07-31T09:23:54;16.70;99.90
16814;DHT22;8524;57.650;11.926;2023-07-31T09:26:33;16.80;99.90
16814;DHT22;8524;57.650;11.926;2023-07-31T09:29:01;16.90;99.90
16814;DHT22;8524;57.650;11.926;2023-07-31T09:31:40;17.10;99.90
16814;DHT22;8524;57.650;11.926;2023-07-31T09:34:08;17.20;99.90
16814;DHT22;8524;57.650;11.926;2023-07-31T09:36:40;17.10;99.90
16814;DHT22;8524;57.650;11.926;2023-07-31T09:39:09;17.10;99.90
16814;DHT22;8524;57.650;11.926;2023-07-31T09:41:38;17.10;99.90
16814;DHT22;8524;57.650;11.926;2023-07-31T09:44:06;17.10;99.90
16814;DHT22;8524;57.650;11.926;2023-07-31T09:46:35;17.00;99.90
16814;DHT22;8524;57.650;11.926;2023-07-31T09:49:09;17.10;99.90
16814;DHT22;8524;57.650;11.926;2023-07-31T09:51:37;17.00;99.90
16814;DHT22;8524;57.650;11.926;2023-07-31T09:54:09;17.10;99.90
16814;DHT22;8524;57.650;11.926;2023-07-31T09:56:42;17.00;99.90
16814;DHT22;8524;57.650;11.926;2023-07-31T09:59:12;17.20;99.90
16814;DHT22;8524;57.650;11.926;2023-07-31T10:01:40;17.30;99.90
16814;DHT22;8524;57.650;11.926;2023-07-31T10:04:08;17.40;99.90
16814;DHT22;8524;57.650;11.926;2023-07-31T10:06:37;17.20;99.90
16814;DHT22;8524;57.650;11.926;2023-07-31T10:09:06;17.20;99.90
16814;DHT22;8524;57.650;11.926;2023-07-31T10:11:37;17.40;99.90
16814;DHT22;8524;57.650;11.926;2023-07-31T10:14:07;17.50;99.90
16814;DHT22;8524;57.650;11.926;2023-07-31T10:16:35;17.70;99.90
16814;DHT22;8524;57.650;11.926;2023-07-31T10:19:03;18.00;99.90
16814;DHT22;8524;57.650;11.926;2023-07-31T10:21:31;18.00;99.90
16814;DHT22;8524;57.650;11.926;2023-07-31T10:24:03;18.10;99.90
16814;DHT22;8524;57.650;11.926;2023-07-31T10:26:31;18.10;99.90
16814;DHT22;8524;57.650;11.926;2023-07-31T10:28:59;17.90;99.90
16814;DHT22;8524;57.650;11.926;2023-07-31T10:31:28;17.70;99.90
16814;DHT22;8524;57.650;11.926;2023-07-31T10:33:57;17.60;99.90
16814;DHT22;8524;57.650;11.926;2023-07-31T10:36:25;17.80;99.90
16814;DHT22;8524;57.650;11.926;2023-07-31T10:38:52;18.20;99.90
16814;DHT22;8524;57.650;11.926;2023-07-31T10:41:28;18.60;99.90
16814;DHT22;8524;57.650;11.926;2023-07-31T10:43:57;18.80;99.90
16814;DHT22;8524;57.650;11.926;2023-07-31T10:46:24;18.90;99.90
16814;DHT22;8524;57.650;11.926;2023-07-31T10:48:59;18.90;99.90
16814;DHT22;8524;57.650;11.926;2023-07-31T10:51:33;19.00;99.90
16814;DHT22;8524;57.650;11.926;2023-07-31T10:54:14;19.20;99.90
16814;DHT22;8524;57.650;11.926;2023-07-31T10:56:45;19.30;99.90
16814;DHT22;8524;57.650;11.926;2023-07-31T10:59:13;19.20;99.90
16814;DHT22;8524;57.650;11.926;2023-07-31T11:01:53;19.60;99.90
16814;DHT22;8524;57.650;11.926;2023-07-31T11:04:24;19.80;99.90
16814;DHT22;8524;57.650;11.926;2023-07-31T11:06:59;20.00;99.90
16814;DHT22;8524;57.650;11.926;2023-07-31T11:09:30;20.10;99.90
16814;DHT22;8524;57.650;11.926;2023-07-31T11:11:58;20.10;99.90
16814;DHT22;8524;57.650;11.926;2023-07-31T11:14:26;20.10;99.90
16814;DHT22;8524;57.650;11.926;2023-07-31T11:16:53;20.30;99.90
16814;DHT22;8524;57.650;11.926;2023-07-31T11:19:24;20.70;99.90
16814;DHT22;8524;57.650;11.926;2023-07-31T11:21:52;20.80;99.90
16814;DHT22;8524;57.650;11.926;2023-07-31T11:24:19;21.00;99.90
16814;DHT22;8524;57.650;11.926;2023-07-31T11:26:50;21.00;99.90
16814;DHT22;8524;57.650;11.926;2023-07-31T11:29:18;20.70;99.90
16814;DHT22;8524;57.650;11.926;2023-07-31T11:31:45;20.60;99.90
16814;DHT22;8524;57.650;11.926;2023-07-31T11:34:13;20.80;99.90
16814;DHT22;8524;57.650;11.926;2023-07-31T11:36:52;20.90;99.90
16814;DHT22;8524;57.650;11.926;2023-07-31T11:39:20;21.00;99.90
16814;DHT22;8524;57.650;11.926;2023-07-31T11:41:47;21.00;99.90
16814;DHT22;8524;57.650;11.926;2023-07-31T11:44:14;21.00;99.90
16814;DHT22;8524;57.650;11.926;2023-07-31T11:46:42;20.90;99.90
16814;DHT22;8524;57.650;11.926;2023-07-31T11:49:09;20.80;99.90
16814;DHT22;8524;57.650;11.926;2023-07-31T11:51:36;20.50;99.90
16814;DHT22;8524;57.650;11.926;2023-07-31T11:54:05;20.30;99.90
16814;DHT22;8524;57.650;11.926;2023-07-31T11:56:32;20.00;99.90
16814;DHT22;8524;57.650;11.926;2023-07-31T11:59:00;20.10;99.90
16814;DHT22;8524;57.650;11.926;2023-07-31T12:01:29;20.20;99.90
16814;DHT22;8524;57.650;11.926;2023-07-31T12:03:56;20.20;99.90
16814;DHT22;8524;57.650;11.926;2023-07-31T12:06:32;20.00;99.90
16814;DHT22;8524;57.650;11.926;2023-07-31T12:09:02;19.80;99.90
16814;DHT22;8524;57.650;11.926;2023-07-31T12:11:31;20.00;99.90
16814;DHT22;8524;57.650;11.926;2023-07-31T12:13:58;20.40;99.90
16814;DHT22;8524;57.650;11.926;2023-07-31T12:16:26;20.40;99.90
16814;DHT22;8524;57.650;11.926;2023-07-31T12:18:54;20.40;99.90
16814;DHT22;8524;57.650;11.926;2023-07-31T12:21:21;20.30;99.90
16814;DHT22;8524;57.650;11.926;2023-07-31T12:23:48;20.60;99.90
16814;DHT22;8524;57.650;11.926;2023-07-31T12:26:16;20.60;99.90
16814;DHT22;8524;57.650;11.926;2023-07-31T12:28:46;20.70;99.90
16814;DHT22;8524;57.650;11.926;2023-07-31T12:31:15;20.70;99.90
16814;DHT22;8524;57.650;11.926;2023-07-31T12:33:43;20.90;99.90
16814;DHT22;8524;57.650;11.926;2023-07-31T12:36:12;20.70;99.90
16814;DHT22;8524;57.650;11.926;2023-07-31T12:38:40;20.60;99.90
16814;DHT22;8524;57.650;11.926;2023-07-31T12:41:07;20.40;99.90
16814;DHT22;8524;57.650;11.926;2023-07-31T12:43:34;20.20;99.90
16814;DHT22;8524;57.650;11.926;2023-07-31T12:46:03;19.90;99.90
16814;DHT22;8524;57.650;11.926;2023-07-31T12:48:32;19.70;99.90
16814;DHT22;8524;57.650;11.926;2023-07-31T12:50:59;19.60;99.90
16814;DHT22;8524;57.650;11.926;2023-07-31T12:53:26;19.80;99.90
16814;DHT22;8524;57.650;11.926;2023-07-31T12:55:55;19.90;99.90
16814;DHT22;8524;57.650;11.926;2023-07-31T12:58:22;20.10;99.90
16814;DHT22;8524;57.650;11.926;2023-07-31T13:00:50;20.00;99.90
16814;DHT22;8524;57.650;11.926;2023-07-31T13:03:18;19.70;99.90
16814;DHT22;8524;57.650;11.926;2023-07-31T13:05:45;19.90;99.90
16814;DHT22;8524;57.650;11.926;2023-07-31T13:08:12;19.90;99.90
16814;DHT22;8524;57.650;11.926;2023-07-31T13:10:41;19.80;99.90
16814;DHT22;8524;57.650;11.926;2023-07-31T13:13:09;19.80;99.90
16814;DHT22;8524;57.650;11.926;2023-07-31T13:15:36;19.70;99.90
16814;DHT22;8524;57.650;11.926;2023-07-31T13:18:03;19.70;99.90
16814;DHT22;8524;57.650;11.926;2023-07-31T13:20:32;19.70;99.90
16814;DHT22;8524;57.650;11.926;2023-07-31T13:22:59;19.60;99.90
16814;DHT22;8524;57.650;11.926;2023-07-31T13:25:26;19.50;99.90
16814;DHT22;8524;57.650;11.926;2023-07-31T13:27:53;19.50;99.90
16814;DHT22;8524;57.650;11.926;2023-07-31T13:30:20;19.50;99.90
16814;DHT22;8524;57.650;11.926;2023-07-31T13:32:47;19.40;99.90
16814;DHT22;8524;57.650;11.926;2023-07-31T13:35:14;19.40;99.90
16814;DHT22;8524;57.650;11.926;2023-07-31T13:37:42;19.40;99.90
16814;DHT22;8524;57.650;11.926;2023-07-31T13:40:10;19.50;99.90
16814;DHT22;8524;57.650;11.926;2023-07-31T13:42:37;19.90;99.90
16814;DHT22;8524;57.650;11.926;2023-07-31T13:45:05;20.40;99.90
16814;DHT22;8524;57.650;11.926;2023-07-31T13:47:32;20.90;99.90
16814;DHT22;8524;57.650;11.926;2023-07-31T13:49:59;21.20;99.90
16814;DHT22;8524;57.650;11.926;2023-07-31T13:52:27;21.60;99.90
16814;DHT22;8524;57.650;11.926;2023-07-31T13:54:55;21.40;99.90
16814;DHT22;8524;57.650;11.926;2023-07-31T13:57:22;21.10;99.90
16814;DHT22;8524;57.650;11.926;2023-07-31T13:59:49;20.80;99.90
16814;DHT22;8524;57.650;11.926;2023-07-31T14:02:16;20.70;99.90
16814;DHT22;8524;57.650;11.926;2023-07-31T14:04:43;20.60;99.90
16814;DHT22;8524;57.650;11.926;2023-07-31T14:07:10;20.50;99.90
16814;DHT22;8524;57.650;11.926;2023-07-31T14:09:37;20.30;99.90
16814;DHT22;8524;57.650;11.926;2023-07-31T14:12:06;20.00;99.90
16814;DHT22;8524;57.650;11.926;2023-07-31T14:14:33;20.40;99.90
16814;DHT22;8524;57.650;11.926;2023-07-31T14:17:00;20.70;99.90
16814;DHT22;8524;57.650;11.926;2023-07-31T14:19:28;21.20;99.90
16814;DHT22;8524;57.650;11.926;2023-07-31T14:21:55;21.20;99.90
16814;DHT22;8524;57.650;11.926;2023-07-31T14:24:22;21.50;99.90
16814;DHT22;8524;57.650;11.926;2023-07-31T14:26:49;21.60;99.90
16814;DHT22;8524;57.650;11.926;2023-07-31T14:29:17;21.80;99.90
16814;DHT22;8524;57.650;11.926;2023-07-31T14:31:45;21.70;99.90
16814;DHT22;8524;57.650;11.926;2023-07-31T14:34:12;21.70;99.90
16814;DHT22;8524;57.650;11.926;2023-07-31T14:36:39;21.50;99.90
16814;DHT22;8524;57.650;11.926;2023-07-31T14:39:06;21.40;99.90
16814;DHT22;8524;57.650;11.926;2023-07-31T14:41:33;21.20;99.90
16814;DHT22;8524;57.650;11.926;2023-07-31T14:44:00;21.20;99.90
16814;DHT22;8524;57.650;11.926;2023-07-31T14:46:28;21.20;99.90
16814;DHT22;8524;57.650;11.926;2023-07-31T14:48:55;21.40;99.90
16814;DHT22;8524;57.650;11.926;2023-07-31T14:51:22;21.40;99.90
16814;DHT22;8524;57.650;11.926;2023-07-31T14:53:49;21.50;99.90
16814;DHT22;8524;57.650;11.926;2023-07-31T14:56:16;21.20;99.90
16814;DHT22;8524;57.650;11.926;2023-07-31T14:58:43;21.10;99.90
16814;DHT22;8524;57.650;11.926;2023-07-31T15:01:10;20.90;99.90
16814;DHT22;8524;57.650;11.926;2023-07-31T15:03:39;20.60;99.90
16814;DHT22;8524;57.650;11.926;2023-07-31T15:06:06;20.40;99.90
16814;DHT22;8524;57.650;11.926;2023-07-31T15:08:33;20.10;99.90
16814;DHT22;8524;57.650;11.926;2023-07-31T15:11:01;19.80;99.90
16814;DHT22;8524;57.650;11.926;2023-07-31T15:13:29;19.40;99.90
16814;DHT22;8524;57.650;11.926;2023-07-31T15:15:56;19.40;99.90
16814;DHT22;8524;57.650;11.926;2023-07-31T15:18:23;19.40;99.90
16814;DHT22;8524;57.650;11.926;2023-07-31T15:20:53;19.20;99.90
16814;DHT22;8524;57.650;11.926;2023-07-31T15:23:21;19.10;99.90
16814;DHT22;8524;57.650;11.926;2023-07-31T15:25:48;18.90;99.90
16814;DHT22;8524;57.650;11.926;2023-07-31T15:28:15;18.80;99.90
16814;DHT22;8524;57.650;11.926;2023-07-31T15:30:43;18.80;99.90
16814;DHT22;8524;57.650;11.926;2023-07-31T15:33:10;18.70;99.90
16814;DHT22;8524;57.650;11.926;2023-07-31T15:35:37;18.70;99.90